sensor_id;sensor_type;location;lat;lon;timestamp;P1;durP1;ratioP1;P2;durP2;ratioP2
45368;SDS011;51342;55.250;37.668;2023-09-08T00:00:20;3.95;;;1.63;;
45368;SDS011;51342;55.250;37.668;2023-09-08T00:02:51;3.58;;;1.90;;
45368;SDS011;51342;55.250;37.668;2023-09-08T00:05:23;2.72;;;1.60;;
45368;SDS011;51342;55.250;37.668;2023-09-08T00:07:54;3.15;;;1.60;;
45368;SDS011;51342;55.250;37.668;2023-09-08T00:10:25;2.72;;;1.70;;
45368;SDS011;51342;55.250;37.668;2023-09-08T00:12:57;3.85;;;1.50;;
45368;SDS011;51342;55.250;37.668;2023-09-08T00:15:28;4.07;;;1.88;;
45368;SDS011;51342;55.250;37.668;2023-09-08T00:17:59;5.22;;;1.70;;
45368;SDS011;51342;55.250;37.668;2023-09-08T00:20:30;4.75;;;1.98;;
45368;SDS011;51342;55.250;37.668;2023-09-08T00:23:02;2.45;;;1.48;;
45368;SDS011;51342;55.250;37.668;2023-09-08T00:25:33;5.40;;;1.65;;
45368;SDS011;51342;55.250;37.668;2023-09-08T00:28:05;4.47;;;1.92;;
45368;SDS011;51342;55.250;37.668;2023-09-08T00:30:37;4.22;;;1.52;;
45368;SDS011;51342;55.250;37.668;2023-09-08T00:33:08;3.90;;;1.58;;
45368;SDS011;51342;55.250;37.668;2023-09-08T00:35:48;3.35;;;1.65;;
45368;SDS011;51342;55.250;37.668;2023-09-08T00:38:20;3.10;;;1.33;;
45368;SDS011;51342;55.250;37.668;2023-09-08T00:40:52;3.67;;;1.50;;
45368;SDS011;51342;55.250;37.668;2023-09-08T00:43:23;4.65;;;1.90;;
45368;SDS011;51342;55.250;37.668;2023-09-08T00:45:54;2.38;;;1.40;;
45368;SDS011;51342;55.250;37.668;2023-09-08T00:48:27;2.92;;;1.42;;
45368;SDS011;51342;55.250;37.668;2023-09-08T00:50:59;3.15;;;1.55;;
45368;SDS011;51342;55.250;37.668;2023-09-08T00:53:30;4.35;;;1.50;;
45368;SDS011;51342;55.250;37.668;2023-09-08T00:56:02;4.97;;;1.67;;
45368;SDS011;51342;55.250;37.668;2023-09-08T00:58:34;2.72;;;1.42;;
45368;SDS011;51342;55.250;37.668;2023-09-08T01:01:05;2.88;;;1.40;;
45368;SDS011;51342;55.250;37.668;2023-09-08T01:03:37;2.60;;;1.60;;
45368;SDS011;51342;55.250;37.668;2023-09-08T01:06:08;2.75;;;1.40;;
45368;SDS011;51342;55.250;37.668;2023-09-08T01:08:40;5.03;;;1.45;;
45368;SDS011;51342;55.250;37.668;2023-09-08T01:11:14;3.75;;;1.50;;
45368;SDS011;51342;55.250;37.668;2023-09-08T01:13:46;2.42;;;1.15;;
45368;SDS011;51342;55.250;37.668;2023-09-08T01:16:17;3.13;;;1.20;;
45368;SDS011;51342;55.250;37.668;2023-09-08T01:18:48;4.18;;;1.70;;
45368;SDS011;51342;55.250;37.668;2023-09-08T01:26:59;2.35;;;1.33;;
45368;SDS011;51342;55.250;37.668;2023-09-08T01:29:31;4.22;;;1.38;;
45368;SDS011;51342;55.250;37.668;2023-09-08T01:32:03;3.70;;;1.42;;
45368;SDS011;51342;55.250;37.668;2023-09-08T01:34:35;3.35;;;1.38;;
45368;SDS011;51342;55.250;37.668;2023-09-08T01:37:10;2.42;;;1.30;;
45368;SDS011;51342;55.250;37.668;2023-09-08T01:39:42;2.35;;;1.25;;
45368;SDS011;51342;55.250;37.668;2023-09-08T01:42:13;4.55;;;1.30;;
45368;SDS011;51342;55.250;37.668;2023-09-08T01:44:44;2.70;;;1.38;;
45368;SDS011;51342;55.250;37.668;2023-09-08T01:47:16;5.13;;;2.22;;
45368;SDS011;51342;55.250;37.668;2023-09-08T01:49:48;2.15;;;1.20;;
45368;SDS011;51342;55.250;37.668;2023-09-08T01:52:20;3.67;;;1.33;;
45368;SDS011;51342;55.250;37.668;2023-09-08T01:54:51;3.45;;;1.45;;
45368;SDS011;51342;55.250;37.668;2023-09-08T01:57:22;3.47;;;1.67;;
45368;SDS011;51342;55.250;37.668;2023-09-08T01:59:54;3.10;;;1.20;;
45368;SDS011;51342;55.250;37.668;2023-09-08T02:02:28;2.17;;;1.10;;
45368;SDS011;51342;55.250;37.668;2023-09-08T02:04:59;4.72;;;1.63;;
45368;SDS011;51342;55.250;37.668;2023-09-08T02:07:31;2.80;;;1.30;;
45368;SDS011;51342;55.250;37.668;2023-09-08T02:10:02;2.47;;;1.30;;
45368;SDS011;51342;55.250;37.668;2023-09-08T02:12:34;3.30;;;1.30;;
45368;SDS011;51342;55.250;37.668;2023-09-08T02:15:06;2.90;;;1.23;;
45368;SDS011;51342;55.250;37.668;2023-09-08T02:17:38;4.20;;;1.45;;
45368;SDS011;51342;55.250;37.668;2023-09-08T02:20:10;2.72;;;1.45;;
45368;SDS011;51342;55.250;37.668;2023-09-08T02:22:41;3.65;;;1.33;;
45368;SDS011;51342;55.250;37.668;2023-09-08T02:25:13;2.15;;;1.40;;
45368;SDS011;51342;55.250;37.668;2023-09-08T02:27:45;3.13;;;1.40;;
45368;SDS011;51342;55.250;37.668;2023-09-08T02:30:17;2.90;;;1.58;;
45368;SDS011;51342;55.250;37.668;2023-09-08T02:32:48;3.17;;;1.40;;
45368;SDS011;51342;55.250;37.668;2023-09-08T02:35:20;2.72;;;1.30;;
45368;SDS011;51342;55.250;37.668;2023-09-08T02:37:51;2.88;;;1.27;;
45368;SDS011;51342;55.250;37.668;2023-09-08T02:40:24;3.05;;;1.30;;
45368;SDS011;51342;55.250;37.668;2023-09-08T02:42:55;2.30;;;1.38;;
45368;SDS011;51342;55.250;37.668;2023-09-08T02:45:27;3.47;;;1.20;;
45368;SDS011;51342;55.250;37.668;2023-09-08T02:47:58;2.63;;;1.10;;
45368;SDS011;51342;55.250;37.668;2023-09-08T02:50:30;3.55;;;1.33;;
45368;SDS011;51342;55.250;37.668;2023-09-08T02:53:01;1.83;;;1.30;;
45368;SDS011;51342;55.250;37.668;2023-09-08T02:55:33;2.40;;;1.40;;
45368;SDS011;51342;55.250;37.668;2023-09-08T02:58:04;4.07;;;1.40;;
45368;SDS011;51342;55.250;37.668;2023-09-08T03:00:35;3.70;;;1.63;;
45368;SDS011;51342;55.250;37.668;2023-09-08T03:03:07;20.58;;;11.18;;
45368;SDS011;51342;55.250;37.668;2023-09-08T03:05:38;21.02;;;11.45;;
45368;SDS011;51342;55.250;37.668;2023-09-08T03:08:10;28.80;;;16.63;;
45368;SDS011;51342;55.250;37.668;2023-09-08T03:10:42;16.90;;;9.90;;
45368;SDS011;51342;55.250;37.668;2023-09-08T03:13:13;15.60;;;8.20;;
45368;SDS011;51342;55.250;37.668;2023-09-08T03:15:45;16.08;;;8.77;;
45368;SDS011;51342;55.250;37.668;2023-09-08T03:18:16;14.27;;;7.90;;
45368;SDS011;51342;55.250;37.668;2023-09-08T03:20:48;7.75;;;4.30;;
45368;SDS011;51342;55.250;37.668;2023-09-08T03:23:21;6.70;;;3.53;;
45368;SDS011;51342;55.250;37.668;2023-09-08T03:25:52;3.88;;;2.17;;
45368;SDS011;51342;55.250;37.668;2023-09-08T03:28:24;4.78;;;1.80;;
45368;SDS011;51342;55.250;37.668;2023-09-08T03:30:55;4.55;;;1.85;;
45368;SDS011;51342;55.250;37.668;2023-09-08T03:33:26;3.20;;;1.40;;
45368;SDS011;51342;55.250;37.668;2023-09-08T03:35:58;4.70;;;2.30;;
45368;SDS011;51342;55.250;37.668;2023-09-08T03:38:29;5.90;;;3.30;;
45368;SDS011;51342;55.250;37.668;2023-09-08T03:41:01;4.00;;;2.45;;
45368;SDS011;51342;55.250;37.668;2023-09-08T03:43:33;4.15;;;1.95;;
45368;SDS011;51342;55.250;37.668;2023-09-08T03:46:06;4.95;;;3.22;;
45368;SDS011;51342;55.250;37.668;2023-09-08T03:48:37;6.03;;;2.72;;
45368;SDS011;51342;55.250;37.668;2023-09-08T03:51:08;2.95;;;1.52;;
45368;SDS011;51342;55.250;37.668;2023-09-08T03:53:40;3.45;;;1.27;;
45368;SDS011;51342;55.250;37.668;2023-09-08T03:56:11;2.53;;;1.40;;
45368;SDS011;51342;55.250;37.668;2023-09-08T03:58:43;4.32;;;1.58;;
45368;SDS011;51342;55.250;37.668;2023-09-08T04:01:15;4.03;;;2.08;;
45368;SDS011;51342;55.250;37.668;2023-09-08T04:03:46;2.67;;;1.20;;
45368;SDS011;51342;55.250;37.668;2023-09-08T04:06:18;2.50;;;1.17;;
45368;SDS011;51342;55.250;37.668;2023-09-08T04:08:49;3.13;;;1.10;;
45368;SDS011;51342;55.250;37.668;2023-09-08T04:11:20;3.15;;;1.92;;
45368;SDS011;51342;55.250;37.668;2023-09-08T04:13:52;2.05;;;1.10;;
45368;SDS011;51342;55.250;37.668;2023-09-08T04:16:23;2.08;;;1.30;;
45368;SDS011;51342;55.250;37.668;2023-09-08T04:18:54;3.13;;;1.15;;
45368;SDS011;51342;55.250;37.668;2023-09-08T04:21:26;3.10;;;1.20;;
45368;SDS011;51342;55.250;37.668;2023-09-08T04:23:57;2.50;;;1.10;;
45368;SDS011;51342;55.250;37.668;2023-09-08T04:26:29;2.65;;;0.80;;
45368;SDS011;51342;55.250;37.668;2023-09-08T04:29:00;2.63;;;1.00;;
45368;SDS011;51342;55.250;37.668;2023-09-08T04:31:31;1.58;;;0.90;;
45368;SDS011;51342;55.250;37.668;2023-09-08T04:34:03;2.35;;;0.73;;
45368;SDS011;51342;55.250;37.668;2023-09-08T04:36:34;1.60;;;0.90;;
45368;SDS011;51342;55.250;37.668;2023-09-08T04:39:05;2.20;;;0.90;;
45368;SDS011;51342;55.250;37.668;2023-09-08T04:41:39;1.85;;;0.90;;
45368;SDS011;51342;55.250;37.668;2023-09-08T04:44:11;1.50;;;0.90;;
45368;SDS011;51342;55.250;37.668;2023-09-08T04:46:42;4.03;;;1.17;;
45368;SDS011;51342;55.250;37.668;2023-09-08T04:49:14;3.20;;;1.30;;
45368;SDS011;51342;55.250;37.668;2023-09-08T04:51:45;3.15;;;1.10;;
45368;SDS011;51342;55.250;37.668;2023-09-08T04:54:19;2.40;;;1.00;;
45368;SDS011;51342;55.250;37.668;2023-09-08T04:56:53;1.75;;;0.82;;
45368;SDS011;51342;55.250;37.668;2023-09-08T04:59:25;2.33;;;0.90;;
45368;SDS011;51342;55.250;37.668;2023-09-08T05:01:58;2.15;;;1.02;;
45368;SDS011;51342;55.250;37.668;2023-09-08T05:04:30;2.20;;;0.80;;
45368;SDS011;51342;55.250;37.668;2023-09-08T05:07:01;2.67;;;0.93;;
45368;SDS011;51342;55.250;37.668;2023-09-08T05:09:33;2.88;;;0.93;;
45368;SDS011;51342;55.250;37.668;2023-09-08T05:12:05;2.17;;;0.95;;
45368;SDS011;51342;55.250;37.668;2023-09-08T05:14:39;1.55;;;0.95;;
45368;SDS011;51342;55.250;37.668;2023-09-08T05:17:10;2.55;;;1.15;;
45368;SDS011;51342;55.250;37.668;2023-09-08T05:19:42;1.98;;;0.90;;
45368;SDS011;51342;55.250;37.668;2023-09-08T05:22:13;2.35;;;0.82;;
45368;SDS011;51342;55.250;37.668;2023-09-08T05:24:45;2.85;;;0.85;;
45368;SDS011;51342;55.250;37.668;2023-09-08T05:27:18;2.20;;;0.93;;
45368;SDS011;51342;55.250;37.668;2023-09-08T05:29:50;2.78;;;1.30;;
45368;SDS011;51342;55.250;37.668;2023-09-08T05:32:21;2.90;;;1.50;;
45368;SDS011;51342;55.250;37.668;2023-09-08T05:34:53;2.92;;;0.90;;
45368;SDS011;51342;55.250;37.668;2023-09-08T05:37:24;1.98;;;1.00;;
45368;SDS011;51342;55.250;37.668;2023-09-08T05:39:55;3.10;;;1.10;;
45368;SDS011;51342;55.250;37.668;2023-09-08T05:42:27;1.73;;;0.90;;
45368;SDS011;51342;55.250;37.668;2023-09-08T05:44:58;2.55;;;0.77;;
45368;SDS011;51342;55.250;37.668;2023-09-08T05:47:31;1.77;;;0.80;;
45368;SDS011;51342;55.250;37.668;2023-09-08T05:50:02;2.28;;;0.95;;
45368;SDS011;51342;55.250;37.668;2023-09-08T05:52:34;2.42;;;1.15;;
45368;SDS011;51342;55.250;37.668;2023-09-08T05:55:05;3.03;;;0.85;;
45368;SDS011;51342;55.250;37.668;2023-09-08T05:57:37;6.05;;;1.20;;
45368;SDS011;51342;55.250;37.668;2023-09-08T06:00:10;5.22;;;1.45;;
45368;SDS011;51342;55.250;37.668;2023-09-08T06:02:49;2.55;;;0.98;;
45368;SDS011;51342;55.250;37.668;2023-09-08T06:05:21;4.90;;;1.40;;
45368;SDS011;51342;55.250;37.668;2023-09-08T06:07:53;4.05;;;1.35;;
45368;SDS011;51342;55.250;37.668;2023-09-08T06:10:24;3.90;;;1.50;;
45368;SDS011;51342;55.250;37.668;2023-09-08T06:12:56;4.13;;;1.33;;
45368;SDS011;51342;55.250;37.668;2023-09-08T06:15:27;3.75;;;1.33;;
45368;SDS011;51342;55.250;37.668;2023-09-08T06:17:59;4.88;;;2.25;;
45368;SDS011;51342;55.250;37.668;2023-09-08T06:20:30;4.90;;;1.65;;
45368;SDS011;51342;55.250;37.668;2023-09-08T06:23:02;5.65;;;1.40;;
45368;SDS011;51342;55.250;37.668;2023-09-08T06:25:34;3.95;;;1.17;;
45368;SDS011;51342;55.250;37.668;2023-09-08T06:28:06;2.15;;;1.27;;
45368;SDS011;51342;55.250;37.668;2023-09-08T06:30:38;1.90;;;0.85;;
45368;SDS011;51342;55.250;37.668;2023-09-08T06:33:13;2.88;;;1.02;;
45368;SDS011;51342;55.250;37.668;2023-09-08T06:35:46;2.08;;;1.20;;
45368;SDS011;51342;55.250;37.668;2023-09-08T06:38:18;1.83;;;0.80;;
45368;SDS011;51342;55.250;37.668;2023-09-08T06:40:49;1.73;;;0.90;;
45368;SDS011;51342;55.250;37.668;2023-09-08T06:43:23;3.10;;;1.20;;
45368;SDS011;51342;55.250;37.668;2023-09-08T06:46:02;1.95;;;0.90;;
45368;SDS011;51342;55.250;37.668;2023-09-08T06:48:34;3.80;;;1.00;;
45368;SDS011;51342;55.250;37.668;2023-09-08T06:51:06;3.05;;;1.27;;
45368;SDS011;51342;55.250;37.668;2023-09-08T06:53:38;2.47;;;0.93;;
45368;SDS011;51342;55.250;37.668;2023-09-08T06:56:09;4.80;;;2.00;;
45368;SDS011;51342;55.250;37.668;2023-09-08T06:58:40;3.22;;;1.75;;
45368;SDS011;51342;55.250;37.668;2023-09-08T07:01:12;1.48;;;1.00;;
45368;SDS011;51342;55.250;37.668;2023-09-08T07:03:43;2.30;;;1.20;;
45368;SDS011;51342;55.250;37.668;2023-09-08T07:06:17;3.75;;;2.05;;
45368;SDS011;51342;55.250;37.668;2023-09-08T07:08:49;3.47;;;1.15;;
45368;SDS011;51342;55.250;37.668;2023-09-08T07:11:22;2.67;;;1.30;;
45368;SDS011;51342;55.250;37.668;2023-09-08T07:13:54;2.47;;;0.95;;
45368;SDS011;51342;55.250;37.668;2023-09-08T07:16:25;3.42;;;1.20;;
45368;SDS011;51342;55.250;37.668;2023-09-08T07:18:57;5.82;;;1.02;;
45368;SDS011;51342;55.250;37.668;2023-09-08T07:21:31;2.35;;;1.25;;
45368;SDS011;51342;55.250;37.668;2023-09-08T07:24:03;4.10;;;1.20;;
45368;SDS011;51342;55.250;37.668;2023-09-08T07:26:34;1.80;;;0.82;;
45368;SDS011;51342;55.250;37.668;2023-09-08T07:29:06;1.80;;;0.90;;
45368;SDS011;51342;55.250;37.668;2023-09-08T07:31:37;1.83;;;0.82;;
45368;SDS011;51342;55.250;37.668;2023-09-08T07:34:10;1.15;;;0.70;;
45368;SDS011;51342;55.250;37.668;2023-09-08T07:36:41;1.92;;;0.70;;
45368;SDS011;51342;55.250;37.668;2023-09-08T07:39:13;2.13;;;1.00;;
45368;SDS011;51342;55.250;37.668;2023-09-08T07:41:44;1.98;;;0.80;;
45368;SDS011;51342;55.250;37.668;2023-09-08T07:44:16;2.50;;;0.80;;
45368;SDS011;51342;55.250;37.668;2023-09-08T07:46:48;2.47;;;0.70;;
45368;SDS011;51342;55.250;37.668;2023-09-08T07:49:22;1.85;;;0.82;;
45368;SDS011;51342;55.250;37.668;2023-09-08T07:51:54;1.58;;;0.80;;
45368;SDS011;51342;55.250;37.668;2023-09-08T07:54:25;2.05;;;0.90;;
45368;SDS011;51342;55.250;37.668;2023-09-08T07:56:56;1.63;;;1.00;;
45368;SDS011;51342;55.250;37.668;2023-09-08T07:59:28;2.45;;;0.73;;
45368;SDS011;51342;55.250;37.668;2023-09-08T08:02:00;2.67;;;1.20;;
45368;SDS011;51342;55.250;37.668;2023-09-08T08:04:31;2.33;;;1.00;;
45368;SDS011;51342;55.250;37.668;2023-09-08T08:07:03;2.88;;;0.98;;
45368;SDS011;51342;55.250;37.668;2023-09-08T08:09:34;2.28;;;0.80;;
45368;SDS011;51342;55.250;37.668;2023-09-08T08:12:05;3.63;;;0.98;;
45368;SDS011;51342;55.250;37.668;2023-09-08T08:14:37;16.80;;;2.72;;
45368;SDS011;51342;55.250;37.668;2023-09-08T08:17:08;15.23;;;3.33;;
45368;SDS011;51342;55.250;37.668;2023-09-08T08:19:39;7.82;;;1.20;;
45368;SDS011;51342;55.250;37.668;2023-09-08T08:22:11;1.95;;;0.80;;
45368;SDS011;51342;55.250;37.668;2023-09-08T08:24:43;1.50;;;0.80;;
45368;SDS011;51342;55.250;37.668;2023-09-08T08:27:15;2.15;;;0.90;;
45368;SDS011;51342;55.250;37.668;2023-09-08T08:29:46;1.80;;;0.90;;
45368;SDS011;51342;55.250;37.668;2023-09-08T08:32:18;1.90;;;0.90;;
45368;SDS011;51342;55.250;37.668;2023-09-08T08:34:49;2.13;;;1.00;;
45368;SDS011;51342;55.250;37.668;2023-09-08T08:37:21;2.40;;;0.93;;
45368;SDS011;51342;55.250;37.668;2023-09-08T08:39:53;2.58;;;0.90;;
45368;SDS011;51342;55.250;37.668;2023-09-08T08:42:26;1.55;;;0.98;;
45368;SDS011;51342;55.250;37.668;2023-09-08T08:45:02;1.38;;;0.80;;
45368;SDS011;51342;55.250;37.668;2023-09-08T08:47:34;3.45;;;1.00;;
45368;SDS011;51342;55.250;37.668;2023-09-08T08:50:06;2.78;;;0.80;;
45368;SDS011;51342;55.250;37.668;2023-09-08T08:52:41;2.67;;;1.00;;
45368;SDS011;51342;55.250;37.668;2023-09-08T08:55:13;2.22;;;0.93;;
45368;SDS011;51342;55.250;37.668;2023-09-08T08:57:47;2.58;;;0.88;;
45368;SDS011;51342;55.250;37.668;2023-09-08T09:00:19;2.13;;;0.77;;
45368;SDS011;51342;55.250;37.668;2023-09-08T09:02:51;1.60;;;0.77;;
45368;SDS011;51342;55.250;37.668;2023-09-08T09:05:23;3.00;;;0.82;;
45368;SDS011;51342;55.250;37.668;2023-09-08T09:07:57;2.55;;;1.00;;
45368;SDS011;51342;55.250;37.668;2023-09-08T09:10:30;3.25;;;0.80;;
45368;SDS011;51342;55.250;37.668;2023-09-08T09:13:02;1.27;;;0.77;;
45368;SDS011;51342;55.250;37.668;2023-09-08T09:15:34;1.05;;;0.70;;
45368;SDS011;51342;55.250;37.668;2023-09-08T09:18:06;4.78;;;1.10;;
45368;SDS011;51342;55.250;37.668;2023-09-08T09:20:38;3.88;;;0.65;;
45368;SDS011;51342;55.250;37.668;2023-09-08T09:23:12;2.42;;;0.65;;
45368;SDS011;51342;55.250;37.668;2023-09-08T09:26:06;1.92;;;0.60;;
45368;SDS011;51342;55.250;37.668;2023-09-08T09:28:46;1.55;;;0.70;;
45368;SDS011;51342;55.250;37.668;2023-09-08T09:31:22;1.52;;;0.77;;
45368;SDS011;51342;55.250;37.668;2023-09-08T09:34:03;1.85;;;0.82;;
45368;SDS011;51342;55.250;37.668;2023-09-08T09:36:35;3.17;;;1.00;;
45368;SDS011;51342;55.250;37.668;2023-09-08T09:39:11;2.70;;;0.90;;
45368;SDS011;51342;55.250;37.668;2023-09-08T09:41:43;2.67;;;0.80;;
45368;SDS011;51342;55.250;37.668;2023-09-08T09:44:16;5.63;;;1.15;;
45368;SDS011;51342;55.250;37.668;2023-09-08T09:46:47;2.70;;;0.85;;
45368;SDS011;51342;55.250;37.668;2023-09-08T09:49:20;1.17;;;0.60;;
45368;SDS011;51342;55.250;37.668;2023-09-08T09:51:52;2.63;;;0.75;;
45368;SDS011;51342;55.250;37.668;2023-09-08T09:54:24;1.83;;;0.82;;
45368;SDS011;51342;55.250;37.668;2023-09-08T09:56:55;2.33;;;1.17;;
45368;SDS011;51342;55.250;37.668;2023-09-08T09:59:27;1.38;;;0.88;;
45368;SDS011;51342;55.250;37.668;2023-09-08T10:01:59;1.60;;;0.90;;
45368;SDS011;51342;55.250;37.668;2023-09-08T10:04:31;1.45;;;0.85;;
45368;SDS011;51342;55.250;37.668;2023-09-08T10:07:03;2.80;;;0.98;;
45368;SDS011;51342;55.250;37.668;2023-09-08T10:09:36;2.95;;;0.80;;
45368;SDS011;51342;55.250;37.668;2023-09-08T10:12:08;2.83;;;0.85;;
45368;SDS011;51342;55.250;37.668;2023-09-08T10:14:41;1.45;;;0.77;;
45368;SDS011;51342;55.250;37.668;2023-09-08T10:17:15;2.10;;;0.80;;
45368;SDS011;51342;55.250;37.668;2023-09-08T10:19:51;1.85;;;0.88;;
45368;SDS011;51342;55.250;37.668;2023-09-08T10:22:29;1.88;;;0.80;;
45368;SDS011;51342;55.250;37.668;2023-09-08T10:25:03;4.20;;;0.88;;
45368;SDS011;51342;55.250;37.668;2023-09-08T10:27:38;2.92;;;0.80;;
45368;SDS011;51342;55.250;37.668;2023-09-08T10:30:11;3.92;;;1.00;;
45368;SDS011;51342;55.250;37.668;2023-09-08T10:32:43;2.17;;;0.80;;
45368;SDS011;51342;55.250;37.668;2023-09-08T10:35:15;2.38;;;0.98;;
45368;SDS011;51342;55.250;37.668;2023-09-08T10:37:48;2.08;;;0.85;;
45368;SDS011;51342;55.250;37.668;2023-09-08T10:40:23;2.95;;;1.08;;
45368;SDS011;51342;55.250;37.668;2023-09-08T10:43:07;2.13;;;0.90;;
45368;SDS011;51342;55.250;37.668;2023-09-08T10:45:40;2.25;;;0.70;;
45368;SDS011;51342;55.250;37.668;2023-09-08T10:48:15;2.70;;;0.90;;
45368;SDS011;51342;55.250;37.668;2023-09-08T10:50:46;3.00;;;0.90;;
45368;SDS011;51342;55.250;37.668;2023-09-08T10:53:18;2.10;;;0.70;;
45368;SDS011;51342;55.250;37.668;2023-09-08T10:55:50;2.95;;;0.80;;
45368;SDS011;51342;55.250;37.668;2023-09-08T10:58:31;3.45;;;0.70;;
45368;SDS011;51342;55.250;37.668;2023-09-08T11:01:17;2.38;;;0.75;;
45368;SDS011;51342;55.250;37.668;2023-09-08T11:03:59;2.10;;;0.70;;
45368;SDS011;51342;55.250;37.668;2023-09-08T11:06:42;4.18;;;1.17;;
45368;SDS011;51342;55.250;37.668;2023-09-08T11:09:14;2.38;;;0.80;;
45368;SDS011;51342;55.250;37.668;2023-09-08T11:11:46;2.38;;;0.90;;
45368;SDS011;51342;55.250;37.668;2023-09-08T11:14:18;3.00;;;0.70;;
45368;SDS011;51342;55.250;37.668;2023-09-08T11:16:49;2.10;;;0.80;;
45368;SDS011;51342;55.250;37.668;2023-09-08T11:19:21;3.80;;;1.20;;
45368;SDS011;51342;55.250;37.668;2023-09-08T11:21:52;1.58;;;0.80;;
45368;SDS011;51342;55.250;37.668;2023-09-08T11:24:24;2.55;;;0.77;;
45368;SDS011;51342;55.250;37.668;2023-09-08T11:26:55;4.43;;;1.02;;
45368;SDS011;51342;55.250;37.668;2023-09-08T11:29:27;4.00;;;0.98;;
45368;SDS011;51342;55.250;37.668;2023-09-08T11:31:59;3.72;;;1.30;;
45368;SDS011;51342;55.250;37.668;2023-09-08T11:34:31;6.20;;;2.05;;
45368;SDS011;51342;55.250;37.668;2023-09-08T11:37:12;3.90;;;1.23;;
45368;SDS011;51342;55.250;37.668;2023-09-08T11:39:47;4.13;;;1.20;;
45368;SDS011;51342;55.250;37.668;2023-09-08T11:42:18;5.28;;;1.35;;
45368;SDS011;51342;55.250;37.668;2023-09-08T11:44:52;3.05;;;1.10;;
45368;SDS011;51342;55.250;37.668;2023-09-08T11:47:24;2.83;;;1.02;;
45368;SDS011;51342;55.250;37.668;2023-09-08T11:49:56;2.42;;;0.98;;
45368;SDS011;51342;55.250;37.668;2023-09-08T11:52:28;3.03;;;1.15;;
45368;SDS011;51342;55.250;37.668;2023-09-08T11:55:00;3.90;;;1.30;;
45368;SDS011;51342;55.250;37.668;2023-09-08T11:57:32;4.97;;;1.38;;
45368;SDS011;51342;55.250;37.668;2023-09-08T12:00:04;10.90;;;4.85;;
45368;SDS011;51342;55.250;37.668;2023-09-08T12:02:38;6.50;;;1.50;;
45368;SDS011;51342;55.250;37.668;2023-09-08T12:05:13;5.68;;;2.70;;
45368;SDS011;51342;55.250;37.668;2023-09-08T12:08:03;4.20;;;1.40;;
45368;SDS011;51342;55.250;37.668;2023-09-08T12:10:39;3.67;;;1.40;;
45368;SDS011;51342;55.250;37.668;2023-09-08T12:13:12;4.95;;;1.42;;
45368;SDS011;51342;55.250;37.668;2023-09-08T12:15:47;3.95;;;1.30;;
45368;SDS011;51342;55.250;37.668;2023-09-08T12:18:18;9.70;;;2.35;;
45368;SDS011;51342;55.250;37.668;2023-09-08T12:21:02;5.00;;;2.72;;
45368;SDS011;51342;55.250;37.668;2023-09-08T12:23:50;3.85;;;1.48;;
45368;SDS011;51342;55.250;37.668;2023-09-08T12:26:26;3.10;;;1.58;;
45368;SDS011;51342;55.250;37.668;2023-09-08T12:28:58;2.63;;;1.30;;
45368;SDS011;51342;55.250;37.668;2023-09-08T12:31:29;3.38;;;1.23;;
45368;SDS011;51342;55.250;37.668;2023-09-08T12:34:01;4.97;;;1.20;;
45368;SDS011;51342;55.250;37.668;2023-09-08T12:36:32;3.22;;;0.95;;
45368;SDS011;51342;55.250;37.668;2023-09-08T12:39:06;3.60;;;1.00;;
45368;SDS011;51342;55.250;37.668;2023-09-08T12:41:38;3.28;;;1.10;;
45368;SDS011;51342;55.250;37.668;2023-09-08T12:44:09;3.28;;;1.25;;
45368;SDS011;51342;55.250;37.668;2023-09-08T12:46:41;1.65;;;1.10;;
45368;SDS011;51342;55.250;37.668;2023-09-08T12:49:12;1.65;;;0.80;;
45368;SDS011;51342;55.250;37.668;2023-09-08T12:51:44;2.00;;;0.80;;
45368;SDS011;51342;55.250;37.668;2023-09-08T12:54:15;1.98;;;0.95;;
45368;SDS011;51342;55.250;37.668;2023-09-08T12:56:47;2.20;;;0.98;;
45368;SDS011;51342;55.250;37.668;2023-09-08T12:59:18;3.03;;;1.05;;
45368;SDS011;51342;55.250;37.668;2023-09-08T13:01:50;1.67;;;0.85;;
45368;SDS011;51342;55.250;37.668;2023-09-08T13:04:24;3.72;;;1.30;;
45368;SDS011;51342;55.250;37.668;2023-09-08T13:06:55;3.50;;;1.30;;
45368;SDS011;51342;55.250;37.668;2023-09-08T13:09:29;2.85;;;1.00;;
45368;SDS011;51342;55.250;37.668;2023-09-08T13:12:00;2.63;;;1.00;;
45368;SDS011;51342;55.250;37.668;2023-09-08T13:14:31;1.73;;;0.98;;
45368;SDS011;51342;55.250;37.668;2023-09-08T13:17:03;2.47;;;1.10;;
45368;SDS011;51342;55.250;37.668;2023-09-08T13:19:35;1.98;;;0.90;;
45368;SDS011;51342;55.250;37.668;2023-09-08T13:22:06;3.80;;;1.33;;
45368;SDS011;51342;55.250;37.668;2023-09-08T13:24:38;1.88;;;1.00;;
45368;SDS011;51342;55.250;37.668;2023-09-08T13:27:10;2.00;;;0.93;;
45368;SDS011;51342;55.250;37.668;2023-09-08T13:29:42;2.95;;;1.05;;
45368;SDS011;51342;55.250;37.668;2023-09-08T13:32:14;1.88;;;0.95;;
45368;SDS011;51342;55.250;37.668;2023-09-08T13:34:45;2.08;;;1.00;;
45368;SDS011;51342;55.250;37.668;2023-09-08T13:37:19;2.42;;;1.08;;
45368;SDS011;51342;55.250;37.668;2023-09-08T13:39:51;3.03;;;1.10;;
45368;SDS011;51342;55.250;37.668;2023-09-08T13:42:22;2.97;;;1.10;;
45368;SDS011;51342;55.250;37.668;2023-09-08T13:44:54;2.08;;;1.00;;
45368;SDS011;51342;55.250;37.668;2023-09-08T13:47:26;3.92;;;1.10;;
45368;SDS011;51342;55.250;37.668;2023-09-08T13:49:58;3.65;;;1.00;;
45368;SDS011;51342;55.250;37.668;2023-09-08T13:52:29;2.72;;;1.17;;
45368;SDS011;51342;55.250;37.668;2023-09-08T13:55:01;2.15;;;1.17;;
45368;SDS011;51342;55.250;37.668;2023-09-08T13:57:33;3.42;;;1.13;;
45368;SDS011;51342;55.250;37.668;2023-09-08T14:00:05;2.38;;;1.30;;
45368;SDS011;51342;55.250;37.668;2023-09-08T14:02:40;5.25;;;1.80;;
45368;SDS011;51342;55.250;37.668;2023-09-08T14:05:12;2.25;;;1.40;;
45368;SDS011;51342;55.250;37.668;2023-09-08T14:07:44;2.58;;;1.42;;
45368;SDS011;51342;55.250;37.668;2023-09-08T14:10:15;2.42;;;1.27;;
45368;SDS011;51342;55.250;37.668;2023-09-08T14:12:47;4.57;;;1.85;;
45368;SDS011;51342;55.250;37.668;2023-09-08T14:15:19;3.10;;;1.25;;
45368;SDS011;51342;55.250;37.668;2023-09-08T14:17:51;3.65;;;1.02;;
45368;SDS011;51342;55.250;37.668;2023-09-08T14:20:23;2.10;;;1.33;;
45368;SDS011;51342;55.250;37.668;2023-09-08T14:22:55;3.60;;;1.55;;
45368;SDS011;51342;55.250;37.668;2023-09-08T14:25:26;3.17;;;1.70;;
45368;SDS011;51342;55.250;37.668;2023-09-08T14:27:58;3.97;;;1.50;;
45368;SDS011;51342;55.250;37.668;2023-09-08T14:30:29;4.10;;;1.55;;
45368;SDS011;51342;55.250;37.668;2023-09-08T14:33:01;4.85;;;1.20;;
45368;SDS011;51342;55.250;37.668;2023-09-08T14:35:34;2.53;;;1.10;;
45368;SDS011;51342;55.250;37.668;2023-09-08T14:38:06;3.53;;;1.20;;
45368;SDS011;51342;55.250;37.668;2023-09-08T14:40:39;3.50;;;1.45;;
45368;SDS011;51342;55.250;37.668;2023-09-08T14:43:10;3.30;;;1.58;;
45368;SDS011;51342;55.250;37.668;2023-09-08T14:45:41;2.75;;;1.30;;
45368;SDS011;51342;55.250;37.668;2023-09-08T14:48:13;5.97;;;1.15;;
45368;SDS011;51342;55.250;37.668;2023-09-08T14:50:45;3.83;;;1.23;;
45368;SDS011;51342;55.250;37.668;2023-09-08T14:53:17;3.05;;;1.77;;
45368;SDS011;51342;55.250;37.668;2023-09-08T14:55:49;6.30;;;2.45;;
45368;SDS011;51342;55.250;37.668;2023-09-08T14:58:20;12.63;;;7.65;;
45368;SDS011;51342;55.250;37.668;2023-09-08T15:00:52;23.63;;;16.90;;
45368;SDS011;51342;55.250;37.668;2023-09-08T15:03:23;38.88;;;29.70;;
45368;SDS011;51342;55.250;37.668;2023-09-08T15:05:55;12.60;;;8.68;;
45368;SDS011;51342;55.250;37.668;2023-09-08T15:08:26;6.65;;;5.68;;